createdAt,value
2018-03-14T00:00:27.890Z,90.00
2018-03-14T00:02:56.927Z,88.70
2018-03-14T00:05:24.487Z,88.70
2018-03-14T00:07:52.027Z,89.40
2018-03-14T00:10:19.529Z,87.60
2018-03-14T00:12:47.315Z,86.60
2018-03-14T00:15:14.890Z,87.00
2018-03-14T00:17:42.417Z,86.60
2018-03-14T00:20:09.947Z,86.60
2018-03-14T00:22:37.473Z,87.10
2018-03-14T00:25:04.997Z,86.60
2018-03-14T00:27:32.729Z,86.00
2018-03-14T00:30:00.255Z,86.00
2018-03-14T00:32:28.018Z,85.80
2018-03-14T00:34:55.561Z,85.90
2018-03-14T00:37:24.168Z,85.50
2018-03-14T00:39:52.668Z,85.00
2018-03-14T00:42:21.743Z,84.60
2018-03-14T00:44:49.359Z,84.60
2018-03-14T00:47:17.157Z,84.40
2018-03-14T00:49:44.709Z,84.90
2018-03-14T00:52:12.207Z,84.10
2018-03-14T00:54:40.654Z,83.50
2018-03-14T00:57:08.244Z,83.50
2018-03-14T00:59:35.910Z,83.00
2018-03-14T01:02:03.438Z,82.90
2018-03-14T01:04:31.757Z,82.30
2018-03-14T01:06:59.300Z,82.20
2018-03-14T01:09:26.849Z,82.60
2018-03-14T01:11:55.133Z,84.20
2018-03-14T01:14:23.410Z,83.20
2018-03-14T01:16:51.701Z,83.90
2018-03-14T01:19:19.980Z,83.40
2018-03-14T01:21:47.501Z,83.30
2018-03-14T01:24:15.050Z,82.30
2018-03-14T01:26:42.621Z,82.60
2018-03-14T01:29:10.159Z,82.40
2018-03-14T01:31:37.673Z,83.00
2018-03-14T01:34:05.190Z,82.80
2018-03-14T01:36:32.741Z,82.50
2018-03-14T01:39:00.318Z,81.90
2018-03-14T01:41:27.821Z,81.80
2018-03-14T01:43:55.337Z,81.20
2018-03-14T01:46:22.863Z,81.50
2018-03-14T01:48:51.736Z,81.00
2018-03-14T01:51:19.272Z,81.00
2018-03-14T01:53:46.759Z,81.20
2018-03-14T01:56:14.265Z,82.30
2018-03-14T01:58:41.773Z,82.10
2018-03-14T02:01:09.313Z,82.70
2018-03-14T02:03:36.860Z,83.30
2018-03-14T02:06:04.379Z,83.60
2018-03-14T02:08:31.902Z,83.70
2018-03-14T02:10:59.487Z,83.30
2018-03-14T02:13:27.022Z,82.80
2018-03-14T02:15:54.667Z,83.50
2018-03-14T02:18:22.416Z,83.20
2018-03-14T02:20:50.184Z,83.20
2018-03-14T02:23:17.730Z,82.10
2018-03-14T02:25:45.267Z,81.90
2018-03-14T02:28:12.773Z,81.90
2018-03-14T02:30:41.053Z,81.90
2018-03-14T02:33:08.561Z,81.90
2018-03-14T02:35:36.126Z,81.80
2018-03-14T02:38:03.690Z,81.80
2018-03-14T02:40:31.221Z,81.10
2018-03-14T02:42:59.520Z,81.80
2018-03-14T02:45:27.789Z,80.80
2018-03-14T02:47:55.289Z,80.70
2018-03-14T02:50:22.796Z,81.10
2018-03-14T02:52:50.279Z,81.30
2018-03-14T02:55:17.808Z,81.10
2018-03-14T02:57:45.349Z,80.80
2018-03-14T03:00:12.910Z,81.60
2018-03-14T03:02:40.531Z,81.50
2018-03-14T03:05:08.074Z,82.20
2018-03-14T03:07:35.586Z,81.70
2018-03-14T03:10:03.863Z,82.30
2018-03-14T03:12:32.231Z,82.30
2018-03-14T03:15:00.022Z,82.30
2018-03-14T03:17:28.283Z,82.10
2018-03-14T03:19:56.559Z,82.10
2018-03-14T03:22:24.096Z,82.00
2018-03-14T03:24:51.602Z,81.70
2018-03-14T03:27:19.876Z,81.90
2018-03-14T03:29:48.132Z,82.70
2018-03-14T03:32:15.693Z,82.00
2018-03-14T03:34:43.201Z,82.10
2018-03-14T03:37:11.483Z,81.20
2018-03-14T03:39:38.996Z,81.20
2018-03-14T03:42:06.671Z,81.30
2018-03-14T03:44:34.152Z,81.00
2018-03-14T03:47:01.676Z,80.80
2018-03-14T03:49:29.176Z,81.30
2018-03-14T03:51:56.674Z,80.80
2018-03-14T03:54:24.169Z,81.40
2018-03-14T03:56:51.688Z,81.30
2018-03-14T03:59:19.962Z,80.40
2018-03-14T04:01:48.335Z,80.40
2018-03-14T04:04:16.659Z,81.20
2018-03-14T04:06:44.316Z,81.20
2018-03-14T04:09:11.810Z,81.00
2018-03-14T04:11:39.319Z,80.90
2018-03-14T04:14:07.581Z,81.10
2018-03-14T04:16:35.095Z,81.00
2018-03-14T04:19:02.590Z,81.50
2018-03-14T04:21:30.109Z,80.60
2018-03-14T04:23:57.625Z,80.70
2018-03-14T04:26:25.119Z,80.20
2018-03-14T04:28:53.679Z,80.50
2018-03-14T04:31:21.161Z,80.50
2018-03-14T04:33:49.411Z,80.30
2018-03-14T04:36:16.910Z,80.30
2018-03-14T04:38:45.166Z,80.60
2018-03-14T04:41:12.666Z,80.60
2018-03-14T04:43:40.161Z,80.20
2018-03-14T04:46:07.727Z,81.30
2018-03-14T04:48:35.231Z,81.00
2018-03-14T04:51:03.514Z,80.60
2018-03-14T04:53:31.789Z,80.60
2018-03-14T04:56:00.037Z,80.90
2018-03-14T04:58:27.584Z,80.80
2018-03-14T05:00:55.104Z,80.90
2018-03-14T05:03:23.435Z,81.40
2018-03-14T05:05:51.036Z,81.50
2018-03-14T05:08:18.720Z,81.10
2018-03-14T05:10:46.989Z,82.20
2018-03-14T05:13:15.485Z,81.20
2018-03-14T05:15:42.961Z,81.10
2018-03-14T05:18:11.449Z,80.90
2018-03-14T05:20:38.972Z,80.90
2018-03-14T05:23:06.524Z,80.20
2018-03-14T05:25:34.019Z,80.60
2018-03-14T05:28:02.332Z,80.70
2018-03-14T05:30:29.889Z,80.70
2018-03-14T05:32:57.385Z,81.30
2018-03-14T05:35:24.897Z,81.20
2018-03-14T05:37:53.189Z,81.90
2018-03-14T05:40:21.463Z,81.90
2018-03-14T05:42:49.735Z,82.00
2018-03-14T05:45:18.017Z,81.80
2018-03-14T05:47:46.427Z,81.90
2018-03-14T05:50:14.083Z,81.90
2018-03-14T05:52:41.611Z,82.00
2018-03-14T05:55:09.110Z,81.90
2018-03-14T05:57:36.653Z,81.60
2018-03-14T06:00:04.954Z,81.90
2018-03-14T06:02:32.471Z,81.80
2018-03-14T06:05:00.005Z,81.50
2018-03-14T06:07:27.523Z,81.70
2018-03-14T06:09:55.014Z,82.20
2018-03-14T06:12:22.520Z,81.20
2018-03-14T06:14:50.893Z,80.80
2018-03-14T06:17:18.435Z,80.80
2018-03-14T06:19:45.938Z,81.10
2018-03-14T06:22:13.457Z,80.80
2018-03-14T06:24:41.145Z,81.20
2018-03-14T06:27:08.673Z,81.20
2018-03-14T06:29:36.975Z,81.00
2018-03-14T06:32:04.494Z,81.00
2018-03-14T06:34:32.773Z,80.20
2018-03-14T06:37:00.569Z,80.00
2018-03-14T06:39:28.843Z,79.80
2018-03-14T06:41:57.131Z,81.10
2018-03-14T06:44:24.681Z,80.40
2018-03-14T06:46:52.977Z,81.00
2018-03-14T06:49:20.487Z,80.90
2018-03-14T06:51:48.061Z,80.60
2018-03-14T06:54:15.619Z,80.70
2018-03-14T06:56:43.127Z,81.70
2018-03-14T06:59:23.211Z,80.70
2018-03-14T07:02:02.948Z,80.60
2018-03-14T07:04:54.831Z,80.70
2018-03-14T07:07:23.122Z,81.50
2018-03-14T07:09:51.482Z,81.20
2018-03-14T07:12:19.753Z,82.10
2018-03-14T07:14:47.253Z,81.50
2018-03-14T07:17:15.520Z,80.40
2018-03-14T07:19:43.795Z,79.90
2018-03-14T07:22:12.084Z,80.00
2018-03-14T07:24:39.692Z,80.00
2018-03-14T07:27:07.207Z,79.80
2018-03-14T07:29:35.477Z,79.60
2018-03-14T07:32:03.779Z,80.30
2018-03-14T07:34:32.049Z,81.20
2018-03-14T07:37:00.316Z,81.40
2018-03-14T07:39:28.603Z,81.50
2018-03-14T07:41:56.903Z,81.50
2018-03-14T07:44:25.778Z,80.70
2018-03-14T07:46:54.033Z,80.80
2018-03-14T07:49:21.543Z,80.40
2018-03-14T07:51:49.049Z,80.60
2018-03-14T07:54:16.590Z,81.20
2018-03-14T07:56:44.114Z,80.90
2018-03-14T07:59:12.469Z,81.60
2018-03-14T08:01:40.068Z,81.50
2018-03-14T08:04:07.583Z,81.20
2018-03-14T08:06:35.063Z,80.80
2018-03-14T08:09:02.576Z,81.50
2018-03-14T08:11:30.096Z,81.20
2018-03-14T08:13:57.736Z,80.40
2018-03-14T08:16:25.953Z,81.00
2018-03-14T08:18:53.495Z,81.00
2018-03-14T08:21:21.034Z,81.20
2018-03-14T08:23:49.287Z,81.00
2018-03-14T08:26:17.567Z,81.60
2018-03-14T08:28:45.840Z,82.10
2018-03-14T08:31:14.112Z,82.20
2018-03-14T08:33:42.434Z,82.10
2018-03-14T08:36:09.943Z,82.00
2018-03-14T08:38:37.474Z,83.00
2018-03-14T08:41:04.988Z,82.10
2018-03-14T08:43:33.263Z,83.00
2018-03-14T08:46:01.671Z,83.20
2018-03-14T08:48:29.938Z,82.70
2018-03-14T08:50:58.215Z,83.20
2018-03-14T08:53:26.522Z,82.70
2018-03-14T08:55:54.035Z,82.60
2018-03-14T08:58:21.527Z,82.10
2018-03-14T09:00:49.849Z,81.70
2018-03-14T09:03:17.363Z,81.70
2018-03-14T09:05:44.885Z,82.00
2018-03-14T09:08:12.421Z,81.00
2018-03-14T09:10:39.939Z,81.00
2018-03-14T09:13:07.448Z,81.20
2018-03-14T09:15:35.091Z,81.30
2018-03-14T09:18:03.433Z,80.30
2018-03-14T09:20:31.001Z,80.20
2018-03-14T09:22:58.519Z,79.50
2018-03-14T09:25:26.102Z,79.40
2018-03-14T09:27:53.659Z,79.00
2018-03-14T09:30:21.183Z,78.60
2018-03-14T09:32:48.801Z,78.30
2018-03-14T09:35:16.319Z,76.70
2018-03-14T09:37:44.591Z,76.60
2018-03-14T09:40:12.093Z,76.60
2018-03-14T09:42:39.611Z,77.50
2018-03-14T09:45:07.128Z,77.20
2018-03-14T09:47:34.610Z,76.00
2018-03-14T09:50:02.173Z,76.20
2018-03-14T09:52:29.679Z,75.10
2018-03-14T09:54:57.959Z,76.60
2018-03-14T09:57:26.299Z,75.50
2018-03-14T09:59:53.871Z,75.00
2018-03-14T10:02:21.373Z,73.20
2018-03-14T10:04:49.633Z,73.90
2018-03-14T10:07:17.980Z,73.80
2018-03-14T10:09:45.496Z,73.30
2018-03-14T10:12:13.769Z,73.40
2018-03-14T10:14:41.275Z,73.40
2018-03-14T10:17:09.607Z,74.60
2018-03-14T10:19:37.105Z,74.50
2018-03-14T10:22:04.715Z,74.70
2018-03-14T10:24:32.219Z,74.90
2018-03-14T10:27:00.487Z,75.00
2018-03-14T10:29:28.026Z,75.00
2018-03-14T10:31:55.525Z,75.30
2018-03-14T10:34:23.803Z,76.40
2018-03-14T10:36:52.560Z,77.00
2018-03-14T10:39:20.067Z,76.90
2018-03-14T10:41:48.353Z,76.30
2018-03-14T10:44:16.650Z,76.40
2018-03-14T10:46:44.153Z,76.40
2018-03-14T10:49:11.667Z,76.70
2018-03-14T10:51:39.174Z,77.10
2018-03-14T10:54:06.704Z,78.10
2018-03-14T10:56:34.210Z,78.50
2018-03-14T10:59:01.703Z,79.00
2018-03-14T11:01:35.814Z,79.10
2018-03-14T11:04:03.310Z,79.00
2018-03-14T11:06:30.874Z,79.10
2018-03-14T11:08:58.409Z,79.10
2018-03-14T11:11:26.689Z,78.20
2018-03-14T11:13:55.747Z,77.40
2018-03-14T11:16:23.290Z,77.20
2018-03-14T11:18:50.797Z,77.50
2018-03-14T11:21:18.333Z,77.50
2018-03-14T11:23:45.820Z,77.00
2018-03-14T11:26:13.376Z,77.00
2018-03-14T11:28:40.856Z,77.60
2018-03-14T11:31:08.358Z,76.10
2018-03-14T11:33:35.871Z,77.80
2018-03-14T11:36:03.371Z,78.70
2018-03-14T11:38:31.067Z,80.10
2018-03-14T11:40:58.585Z,79.40
2018-03-14T11:43:26.881Z,76.20
2018-03-14T11:45:55.242Z,77.00
2018-03-14T11:48:23.521Z,77.90
2018-03-14T11:50:51.802Z,78.10
2018-03-14T11:53:19.342Z,78.10
2018-03-14T11:55:46.879Z,77.00
2018-03-14T11:58:14.486Z,76.30
2018-03-14T12:00:42.032Z,76.50
2018-03-14T12:03:09.555Z,76.00
2018-03-14T12:05:37.063Z,77.00
2018-03-14T12:08:04.693Z,75.90
2018-03-14T12:10:32.406Z,75.70
2018-03-14T12:12:59.991Z,75.30
2018-03-14T12:15:28.285Z,75.50
2018-03-14T12:17:56.575Z,74.80
2018-03-14T12:20:24.089Z,74.80
2018-03-14T12:22:51.596Z,74.50
2018-03-14T12:25:19.097Z,74.50
2018-03-14T12:27:46.630Z,74.40
2018-03-14T12:30:14.121Z,74.50
2018-03-14T12:32:42.386Z,75.10
2018-03-14T12:35:10.278Z,75.10
2018-03-14T12:37:37.766Z,75.50
2018-03-14T12:40:05.491Z,75.80
2018-03-14T12:42:33.337Z,75.60
2018-03-14T12:45:01.657Z,75.80
2018-03-14T12:47:29.175Z,75.80
2018-03-14T12:49:57.456Z,75.30
2018-03-14T12:52:25.771Z,74.40
2018-03-14T12:54:53.295Z,74.40
2018-03-14T12:57:21.603Z,71.30
2018-03-14T12:59:49.095Z,71.30
2018-03-14T13:02:16.597Z,71.80
2018-03-14T13:04:44.113Z,72.50
2018-03-14T13:07:11.604Z,72.70
2018-03-14T13:09:39.132Z,72.70
2018-03-14T13:12:06.630Z,72.70
2018-03-14T13:14:34.181Z,73.00
2018-03-14T13:17:01.753Z,72.80
2018-03-14T13:19:29.322Z,73.20
2018-03-14T13:21:56.893Z,73.10
2018-03-14T13:24:24.425Z,72.30
2018-03-14T13:26:51.926Z,72.70
2018-03-14T13:29:19.647Z,72.80
2018-03-14T13:31:47.146Z,73.10
2018-03-14T13:34:14.636Z,72.70
2018-03-14T13:36:42.909Z,70.30
2018-03-14T13:39:11.195Z,70.50
2018-03-14T13:41:39.457Z,71.10
2018-03-14T13:44:07.137Z,71.00
2018-03-14T13:46:35.928Z,71.00
2018-03-14T13:49:04.218Z,70.90
2018-03-14T13:51:32.493Z,71.10
2018-03-14T13:54:00.770Z,71.40
2018-03-14T13:56:29.026Z,71.40
2018-03-14T13:58:56.592Z,71.40
2018-03-14T14:01:24.094Z,72.30
2018-03-14T14:03:52.362Z,69.70
2018-03-14T14:06:20.640Z,69.60
2018-03-14T14:08:48.124Z,69.60
2018-03-14T14:11:15.654Z,68.50
2018-03-14T14:13:43.178Z,68.60
2018-03-14T14:16:10.740Z,68.50
2018-03-14T14:18:39.020Z,69.60
2018-03-14T14:21:07.162Z,69.50
2018-03-14T14:23:35.447Z,69.70
2018-03-14T14:26:03.740Z,69.80
2018-03-14T14:28:31.240Z,69.70
2018-03-14T14:30:58.798Z,68.60
2018-03-14T14:33:26.358Z,67.90
2018-03-14T14:35:53.885Z,68.00
2018-03-14T14:38:21.420Z,68.20
2018-03-14T14:40:48.944Z,68.00
2018-03-14T14:43:16.453Z,67.60
2018-03-14T14:45:44.004Z,67.50
2018-03-14T14:48:11.483Z,67.90
2018-03-14T14:50:39.014Z,67.80
2018-03-14T14:53:06.519Z,68.30
2018-03-14T14:55:34.793Z,68.90
2018-03-14T14:58:02.364Z,68.90
2018-03-14T15:00:30.682Z,68.70
2018-03-14T15:02:58.353Z,68.70
2018-03-14T15:05:26.826Z,69.10
2018-03-14T15:07:54.471Z,69.10
2018-03-14T15:10:22.738Z,69.00
2018-03-14T15:12:50.843Z,69.00
2018-03-14T15:15:18.373Z,68.30
2018-03-14T15:17:45.940Z,68.40
2018-03-14T15:20:13.454Z,69.50
2018-03-14T15:22:40.962Z,69.00
2018-03-14T15:25:08.493Z,69.50
2018-03-14T15:27:35.989Z,69.80
2018-03-14T15:30:04.293Z,69.40
2018-03-14T15:32:32.570Z,69.00
2018-03-14T15:35:00.832Z,68.70
2018-03-14T15:37:29.128Z,67.90
2018-03-14T15:39:57.381Z,67.60
2018-03-14T15:42:24.982Z,67.50
2018-03-14T15:44:53.246Z,68.40
2018-03-14T15:47:20.758Z,68.40
2018-03-14T15:49:48.308Z,69.50
2018-03-14T15:52:15.824Z,69.50
2018-03-14T15:54:43.354Z,69.30
2018-03-14T15:57:10.973Z,69.30
2018-03-14T15:59:39.252Z,70.90
2018-03-14T16:02:06.740Z,70.90
2018-03-14T16:04:34.234Z,71.30
2018-03-14T16:07:01.728Z,71.30
2018-03-14T16:09:29.302Z,72.00
2018-03-14T16:11:57.600Z,71.70
2018-03-14T16:14:25.871Z,72.10
2018-03-14T16:16:53.366Z,72.00
2018-03-14T16:19:20.868Z,72.10
2018-03-14T16:21:48.382Z,72.60
2018-03-14T16:24:16.072Z,71.90
2018-03-14T16:26:43.634Z,72.40
2018-03-14T16:29:11.130Z,73.40
2018-03-14T16:31:38.676Z,73.80
2018-03-14T16:34:06.192Z,73.90
2018-03-14T16:36:34.516Z,75.10
2018-03-14T16:39:02.054Z,74.70
2018-03-14T16:41:29.648Z,74.90
2018-03-14T16:43:57.891Z,75.30
2018-03-14T16:46:25.425Z,75.90
2018-03-14T16:48:52.930Z,74.80
2018-03-14T16:51:20.450Z,75.40
2018-03-14T16:53:48.786Z,75.70
2018-03-14T16:56:16.310Z,75.70
2018-03-14T16:58:44.640Z,75.70
2018-03-14T17:01:12.193Z,75.70
2018-03-14T17:03:39.682Z,76.00
2018-03-14T17:06:07.214Z,76.40
2018-03-14T17:08:34.734Z,76.60
2018-03-14T17:11:03.162Z,77.10
2018-03-14T17:13:31.502Z,76.70
2018-03-14T17:15:58.982Z,76.70
2018-03-14T17:18:27.263Z,77.60
2018-03-14T17:20:55.535Z,78.00
2018-03-14T17:23:24.000Z,78.40
2018-03-14T17:25:52.434Z,78.30
2018-03-14T17:28:19.957Z,78.10
2018-03-14T17:30:47.444Z,77.90
2018-03-14T17:33:14.973Z,77.80
2018-03-14T17:35:43.424Z,78.40
2018-03-14T17:38:10.933Z,78.50
2018-03-14T17:40:38.728Z,78.60
2018-03-14T17:43:06.277Z,79.70
2018-03-14T17:45:33.812Z,79.30
2018-03-14T17:48:01.320Z,79.30
2018-03-14T17:50:29.594Z,79.30
2018-03-14T17:52:57.934Z,79.20
2018-03-14T17:55:25.582Z,79.20
2018-03-14T17:57:53.082Z,79.50
2018-03-14T18:00:21.351Z,80.00
2018-03-14T18:02:48.915Z,80.00
2018-03-14T18:05:16.444Z,79.60
2018-03-14T18:07:43.963Z,79.50
2018-03-14T18:10:12.248Z,79.80
2018-03-14T18:12:39.758Z,79.70
2018-03-14T18:15:07.496Z,80.00
2018-03-14T18:17:35.036Z,80.20
2018-03-14T18:20:02.598Z,80.40
2018-03-14T18:22:30.900Z,80.80
2018-03-14T18:24:58.550Z,80.00
2018-03-14T18:27:27.027Z,80.60
2018-03-14T18:29:55.350Z,80.60
2018-03-14T18:32:22.860Z,80.60
2018-03-14T18:34:50.408Z,80.90
2018-03-14T18:37:17.986Z,81.10
2018-03-14T18:39:46.068Z,81.20
2018-03-14T18:42:14.381Z,81.10
2018-03-14T18:44:42.706Z,81.20
2018-03-14T18:47:10.317Z,81.20
2018-03-14T18:49:38.595Z,81.50
2018-03-14T18:52:06.874Z,81.30
2018-03-14T18:54:34.376Z,81.20
2018-03-14T18:57:01.888Z,81.30
2018-03-14T18:59:29.514Z,81.90
2018-03-14T19:01:57.346Z,82.30
2018-03-14T19:04:25.636Z,82.10
2018-03-14T19:06:53.246Z,82.10
2018-03-14T19:09:20.812Z,82.20
2018-03-14T19:11:48.387Z,82.30
2018-03-14T19:14:15.961Z,82.30
2018-03-14T19:16:43.486Z,82.00
2018-03-14T19:19:11.015Z,81.40
2018-03-14T19:21:39.332Z,81.40
2018-03-14T19:24:06.984Z,81.30
2018-03-14T19:26:34.522Z,82.40
2018-03-14T19:29:02.852Z,82.30
2018-03-14T19:31:30.389Z,82.30
2018-03-14T19:33:57.914Z,82.30
2018-03-14T19:36:25.516Z,82.50
2018-03-14T19:38:53.123Z,82.60
2018-03-14T19:41:20.719Z,82.00
2018-03-14T19:43:49.002Z,81.50
2018-03-14T19:46:17.280Z,81.80
2018-03-14T19:48:45.562Z,82.20
2018-03-14T19:51:14.816Z,82.20
2018-03-14T19:53:42.310Z,82.10
2018-03-14T19:56:09.918Z,82.40
2018-03-14T19:58:37.573Z,82.40
2018-03-14T20:01:05.856Z,82.50
2018-03-14T20:03:33.408Z,82.50
2018-03-14T20:06:02.144Z,82.30
2018-03-14T20:08:29.672Z,82.30
2018-03-14T20:10:57.988Z,81.70
2018-03-14T20:13:26.687Z,81.70
2018-03-14T20:15:54.245Z,81.40
2018-03-14T20:18:21.768Z,80.20
2018-03-14T20:20:49.316Z,80.00
2018-03-14T20:23:16.841Z,80.40
2018-03-14T20:25:44.387Z,80.30
2018-03-14T20:28:11.931Z,80.40
2018-03-14T20:30:39.518Z,80.70
2018-03-14T20:33:07.177Z,81.40
2018-03-14T20:35:35.299Z,81.70
2018-03-14T20:38:03.362Z,82.20
2018-03-14T20:40:31.044Z,82.30
2018-03-14T20:42:58.600Z,82.00
2018-03-14T20:45:26.162Z,82.00
2018-03-14T20:47:53.804Z,82.10
2018-03-14T20:50:21.393Z,81.90
2018-03-14T20:52:48.954Z,82.00
2018-03-14T20:55:16.480Z,81.80
2018-03-14T20:57:44.056Z,81.80
2018-03-14T21:00:11.629Z,82.00
2018-03-14T21:02:39.939Z,82.20
2018-03-14T21:05:07.426Z,82.20
2018-03-14T21:07:35.747Z,82.00
2018-03-14T21:10:03.439Z,82.00
2018-03-14T21:12:30.976Z,81.90
2018-03-14T21:14:58.504Z,82.00
2018-03-14T21:17:26.852Z,82.00
2018-03-14T21:19:54.345Z,82.00
2018-03-14T21:22:22.638Z,81.90
2018-03-14T21:24:50.926Z,82.00
2018-03-14T21:27:19.014Z,82.00
2018-03-14T21:29:46.654Z,82.10
2018-03-14T21:32:14.978Z,82.50
2018-03-14T21:34:42.524Z,82.50
2018-03-14T21:37:10.066Z,82.20
2018-03-14T21:39:39.308Z,81.70
2018-03-14T21:42:06.908Z,82.30
2018-03-14T21:44:34.568Z,81.80
2018-03-14T21:47:02.326Z,81.50
2018-03-14T21:49:30.334Z,81.80
2018-03-14T21:51:57.894Z,82.20
2018-03-14T21:54:27.088Z,82.00
2018-03-14T21:56:54.652Z,82.00
2018-03-14T21:59:23.074Z,82.00
2018-03-14T22:01:50.606Z,81.50
2018-03-14T22:04:18.204Z,81.70
2018-03-14T22:06:46.481Z,81.80
2018-03-14T22:09:14.748Z,82.30
2018-03-14T22:11:43.051Z,82.10
2018-03-14T22:14:10.565Z,82.10
2018-03-14T22:16:38.282Z,82.30
2018-03-14T22:19:05.787Z,82.40
2018-03-14T22:21:33.295Z,82.20
2018-03-14T22:24:01.572Z,82.40
2018-03-14T22:26:29.829Z,82.10
2018-03-14T22:28:58.151Z,82.50
2018-03-14T22:31:25.659Z,82.40
2018-03-14T22:33:53.199Z,82.60
2018-03-14T22:36:20.704Z,82.50
2018-03-14T22:38:48.279Z,82.80
2018-03-14T22:41:16.578Z,82.70
2018-03-14T22:43:44.902Z,82.80
2018-03-14T22:46:12.455Z,82.80
2018-03-14T22:48:40.014Z,82.10
2018-03-14T22:51:07.530Z,82.30
2018-03-14T22:53:35.052Z,82.00
2018-03-14T22:56:02.574Z,83.10
2018-03-14T22:58:30.866Z,81.70
2018-03-14T23:00:59.128Z,81.50
2018-03-14T23:03:27.456Z,81.40
2018-03-14T23:05:54.976Z,81.40
2018-03-14T23:08:23.256Z,82.10
2018-03-14T23:10:51.548Z,82.20
2018-03-14T23:13:19.836Z,81.70
2018-03-14T23:15:47.366Z,81.50
2018-03-14T23:18:16.429Z,81.30
2018-03-14T23:20:44.051Z,81.30
2018-03-14T23:23:12.664Z,81.40
2018-03-14T23:25:40.184Z,81.40
2018-03-14T23:28:07.745Z,81.60
2018-03-14T23:30:35.615Z,82.50
2018-03-14T23:33:05.325Z,82.20
2018-03-14T23:35:32.848Z,82.10
2018-03-14T23:38:00.359Z,82.20
2018-03-14T23:40:27.858Z,82.20
2018-03-14T23:42:55.399Z,82.10
2018-03-14T23:45:22.984Z,81.90
2018-03-14T23:47:51.274Z,81.60
2018-03-14T23:50:18.786Z,81.60
2018-03-14T23:52:46.376Z,81.60
2018-03-14T23:55:13.944Z,81.50
2018-03-14T23:57:42.223Z,81.70
